Data for 11/19/2018

Time Sea-Level Adjusted Pressure Absolute Pressure Temperature Relative Humidity Dew Point   
(mb) (inHg) (mb) (inHg) (C) (F) (%) (C) (F)
00:05 1023 30.21 852 25.16 0.1 32.2 77 -3.4 25.9
00:10 1023 30.21 852 25.16 0.4 32.7 77 -3.1 26.4
00:15 1023 30.21 852 25.16 0.5 32.8 76 -3.2 26.2
00:20 1023 30.21 852 25.16 0.6 33.1 75 -3.3 26
00:25 1023 30.21 852 25.16 0.7 33.3 76 -3.1 26.4
00:30 1023 30.21 852 25.16 0.7 33.3 76 -3.1 26.5
00:35 1023 30.21 852 25.16 0.5 32.8 76 -3.3 26
00:40 1023 30.21 852 25.16 0.3 32.6 76 -3.4 25.8
00:45 1023 30.21 852 25.16 0.3 32.6 76 -3.5 25.8
00:50 1023 30.21 852 25.16 0.3 32.6 75 -3.7 25.4
00:55 1023 30.21 852 25.16 0.4 32.7 74 -3.8 25.2
01:00 1023 30.21 852 25.16 0.3 32.6 73 -4 24.8
01:05 1023 30.21 852 25.16 0.3 32.5 73 -3.9 24.9
01:10 1023 30.21 852 25.16 0.2 32.4 73 -4 24.8
01:15 1023 30.21 852 25.16 0.2 32.4 72 -4.2 24.4
01:20 1023 30.21 852 25.16 0.3 32.6 71 -4.4 24
01:25 1023 30.21 852 25.16 0.4 32.6 71 -4.3 24.3
01:30 1023 30.21 852 25.16 0.2 32.4 71 -4.5 23.9
01:35 1023 30.21 852 25.16 0.2 32.4 72 -4.3 24.2
01:40 1023 30.21 852 25.16 0.1 32.1 74 -4.1 24.6
01:45 1023 30.21 852 25.16 -0.1 31.7 75 -4 24.8
01:50 1023 30.21 852 25.16 -0.2 31.6 75 -4.2 24.4
01:55 1023 30.21 852 25.16 -0.2 31.6 74 -4.2 24.4
02:00 1023 30.21 852 25.16 -0.1 31.8 74 -4.2 24.4
02:05 1023 30.21 852 25.16 0 32 74 -4.1 24.6
02:10 1023 30.21 852 25.16 0.4 32.6 69 -4.7 23.5
02:15 1023 30.21 852 25.16 0.7 33.2 69 -4.4 24
02:20 1023 30.21 852 25.16 0.7 33.2 70 -4.1 24.6
02:25 1023 30.21 852 25.16 0.6 33.1 72 -3.8 25.1
02:30 1023 30.21 852 25.16 0.5 33 71 -4.2 24.5
02:35 1023 30.21 852 25.16 0.7 33.2 72 -3.9 25
02:40 1023 30.21 852 25.16 0.7 33.3 72 -3.7 25.3
02:45 1023 30.21 852 25.16 0.6 33.1 73 -3.7 25.3
02:50 1023 30.21 852 25.16 0.7 33.2 74 -3.5 25.7
02:55 1023 30.21 852 25.16 0.7 33.3 75 -3.3 26
03:00 1023 30.21 852 25.16 0.6 33.2 75 -3.3 26.1
03:05 1023 30.21 852 25.16 0.5 32.9 76 -3.3 26.1
03:10 1023 30.21 852 25.16 0.4 32.6 76 -3.3 26
03:15 1023 30.21 852 25.16 0.1 32.2 78 -3.4 26
03:20 1023 30.21 852 25.16 0.1 32.1 78 -3.3 26
03:25 1023 30.21 852 25.16 0.1 32.3 77 -3.5 25.8
03:30 1023 30.21 852 25.16 0.2 32.3 77 -3.4 26
03:35 1023 30.21 852 25.16 0.1 32.3 76 -3.5 25.6
03:40 1023 30.21 852 25.16 0.2 32.4 74 -3.9 24.9
03:45 1023 30.21 852 25.16 0.3 32.6 75 -3.7 25.4
03:50 1023 30.21 852 25.16 0.3 32.6 75 -3.6 25.6
03:55 1023 30.21 852 25.16 0.3 32.5 76 -3.5 25.7
04:00 1023 30.21 852 25.16 0.2 32.4 76 -3.5 25.8
04:05 1023 30.21 852 25.16 0.1 32.2 77 -3.5 25.7
04:10 1023 30.21 852 25.16 0 32 76 -3.7 25.4
04:15 1023 30.21 852 25.16 -0 32 77 -3.6 25.4
04:20 1023 30.21 852 25.16 -0.3 31.5 78 -3.6 25.6
04:25 1023 30.21 852 25.16 -0.4 31.2 80 -3.5 25.6
04:30 1023 30.21 852 25.16 -0.6 30.9 81 -3.5 25.7
04:35 1023 30.21 852 25.16 -0.8 30.7 81 -3.7 25.4
04:40 1023 30.21 852 25.16 -0.7 30.7 79 -3.9 24.9
04:45 1023 30.21 852 25.16 -0.6 30.8 77 -4.1 24.6
04:50 1023 30.21 852 25.16 -0.5 31.1 77 -4.1 24.6
04:55 1023 30.21 852 25.16 -0.4 31.2 75 -4.3 24.2
05:00 1023 30.21 852 25.16 -0.2 31.7 68 -5.3 22.4
05:05 1023 30.21 852 25.16 0.1 32.2 66 -5.4 22.2
05:10 1023 30.21 852 25.16 0.4 32.7 63 -5.9 21.4
05:15 1023 30.21 852 25.16 0.6 33 62 -6 21.2
05:20 1023 30.21 852 25.16 0.8 33.4 62 -5.7 21.8
05:25 1023 30.21 852 25.16 0.7 33.2 69 -4.4 24.2
05:30 1023 30.21 852 25.16 0.3 32.6 64 -5.7 21.8
05:35 1023 30.21 852 25.16 0.4 32.6 68 -4.9 23.1
05:40 1023 30.21 852 25.16 0.2 32.4 67 -5.2 22.6
05:45 1023 30.21 852 25.16 0.2 32.3 63 -6.1 21.1
05:50 1023 30.21 852 25.16 0.3 32.5 71 -4.3 24.2
05:55 1023 30.21 852 25.16 0.1 32.2 75 -3.8 25.1
06:00 1023 30.21 852 25.16 -0.3 31.5 73 -4.5 23.9
06:05 1023 30.21 852 25.16 -0.3 31.4 74 -4.5 24
06:10 1023 30.21 852 25.16 -0.3 31.4 73 -4.6 23.7
06:15 1023 30.21 852 25.16 -0.2 31.6 70 -5 23.1
06:20 1023 30.21 852 25.16 -0.1 31.9 71 -4.7 23.5
06:25 1023 30.21 852 25.16 -0 31.9 72 -4.5 23.9
06:30 1023 30.21 852 25.16 0.1 32.1 67 -5.3 22.5
06:35 1023 30.21 852 25.16 0.2 32.3 67 -5.3 22.5
06:40 1023 30.21 852 25.16 0.4 32.7 65 -5.4 22.3
06:45 1023 30.21 852 25.16 0.4 32.8 66 -5.3 22.5
06:50 1023 30.21 852 25.16 0.5 33 66 -5.1 22.9
06:55 1023 30.21 853 25.19 0.5 32.9 71 -4.2 24.4
07:00 1023 30.21 853 25.19 0.1 32.2 74 -4.1 24.7
07:05 1023 30.21 853 25.19 -0.4 31.3 78 -3.8 25.1
07:10 1024 30.24 853 25.19 -0.8 30.6 79 -4 24.9
07:15 1024 30.24 853 25.19 -0.8 30.5 79 -4.1 24.6
07:20 1024 30.24 853 25.19 -0.7 30.8 78 -4.1 24.6
07:25 1024 30.24 853 25.19 -0.6 31 78 -4 24.8
07:30 1024 30.24 853 25.19 -0.3 31.4 75 -4.2 24.4
07:35 1024 30.24 853 25.19 -0.1 31.8 75 -4.1 24.7
07:40 1023 30.21 853 25.19 -0.2 31.7 75 -4.1 24.7
07:45 1024 30.24 853 25.19 -0.1 31.9 71 -4.6 23.7
07:50 1024 30.24 853 25.19 0.1 32.1 74 -4 24.8
07:55 1024 30.24 853 25.19 -0.1 31.8 76 -3.9 24.9
08:00 1024 30.24 853 25.19 -0.1 31.8 76 -3.9 25
08:05 1024 30.24 853 25.19 -0.1 31.8 75 -4 24.8
08:10 1024 30.24 853 25.19 -0 31.9 74 -4.1 24.6
08:15 1024 30.24 853 25.19 0.1 32.2 74 -4 24.8
08:20 1024 30.24 853 25.19 0.1 32.2 74 -4 24.8
08:25 1024 30.24 853 25.19 0.1 32.3 74 -3.9 24.9
08:30 1024 30.24 853 25.19 0.2 32.3 74 -3.9 25
08:35 1024 30.24 853 25.19 0.2 32.4 72 -4.3 24.3
08:40 1024 30.24 853 25.19 0.1 32.2 72 -4.3 24.3
08:45 1024 30.24 853 25.19 0.1 32.3 73 -4.1 24.7
08:50 1024 30.24 853 25.19 0.1 32.1 74 -4.1 24.7
08:55 1024 30.24 853 25.19 0.1 32.1 75 -3.9 25.1